SWA730 KOAK-KPHX
Flight info
| Callsign | SWA730 |
|---|---|
| Flight time | 1h 22m |
| Altitude | 35000 |
| Route | CNDEL5 KAYEX LOSHN BOILE BLH HYDRR1 |
| Aircraft | B738/M-SDE2E3FGHIRWXY/LB1 |
Departure
| Time | 2026-05-04 01:10 |
|---|---|
| Airport | San Francisco Bay Oakland International Airport (KOAK) |
Arrival
| Time | 2026-05-04 02:33 |
|---|---|
| Airport | Phoenix Sky Harbor International Airport (KPHX) |
| Time | Latitude | Longitude | Altitude | Speed | Heading |
|---|---|---|---|---|---|
| 2026-05-04 00:58 | 37.71533 | -122.21651 | 12 ft | 0 kts | 48° |
| 2026-05-04 01:01 | 37.71523 | -122.21664 | 12 ft | 3 kts | 48° |
| 2026-05-04 01:02 | 37.71510 | -122.21682 | 12 ft | 2 kts | 46° |
| 2026-05-04 01:02 | 37.71501 | -122.21693 | 12 ft | 1 kts | 32° |
| 2026-05-04 01:02 | 37.71491 | -122.21699 | 12 ft | 1 kts | 14° |
| 2026-05-04 01:02 | 37.71482 | -122.21700 | 12 ft | 1 kts | 358° |
| 2026-05-04 01:03 | 37.71475 | -122.21699 | 12 ft | 1 kts | 342° |
| 2026-05-04 01:03 | 37.71466 | -122.21695 | 12 ft | 1 kts | 327° |
| 2026-05-04 01:03 | 37.71460 | -122.21689 | 12 ft | 1 kts | 318° |
| 2026-05-04 01:03 | 37.71460 | -122.21688 | 12 ft | 0 kts | 318° |
| 2026-05-04 01:05 | 37.71485 | -122.21718 | 12 ft | 10 kts | 316° |
| 2026-05-04 01:05 | 37.71542 | -122.21786 | 12 ft | 11 kts | 315° |
| 2026-05-04 01:06 | 37.71536 | -122.21899 | 12 ft | 18 kts | 233° |
| 2026-05-04 01:06 | 37.71452 | -122.22020 | 12 ft | 17 kts | 229° |
| 2026-05-04 01:06 | 37.71372 | -122.22134 | 12 ft | 17 kts | 228° |
| 2026-05-04 01:06 | 37.71279 | -122.22253 | 12 ft | 20 kts | 220° |
| 2026-05-04 01:07 | 37.71166 | -122.22371 | 12 ft | 20 kts | 219° |
| 2026-05-04 01:07 | 37.71050 | -122.22403 | 12 ft | 17 kts | 130° |
| 2026-05-04 01:07 | 37.70968 | -122.22279 | 12 ft | 20 kts | 130° |
| 2026-05-04 01:07 | 37.70866 | -122.22128 | 12 ft | 24 kts | 130° |
| 2026-05-04 01:08 | 37.70746 | -122.21954 | 12 ft | 26 kts | 130° |
| 2026-05-04 01:08 | 37.70631 | -122.21774 | 12 ft | 25 kts | 127° |
| 2026-05-04 01:08 | 37.70520 | -122.21606 | 12 ft | 24 kts | 132° |
| 2026-05-04 01:08 | 37.70419 | -122.21454 | 12 ft | 19 kts | 129° |
| 2026-05-04 01:09 | 37.70304 | -122.21374 | 10 ft | 11 kts | 161° |
| 2026-05-04 01:09 | 37.70234 | -122.21362 | 11 ft | 9 kts | 198° |
| 2026-05-04 01:09 | 37.70183 | -122.21402 | 12 ft | 9 kts | 214° |
| 2026-05-04 01:09 | 37.70172 | -122.21461 | 12 ft | 6 kts | 306° |
| 2026-05-04 01:10 | 37.70255 | -122.21590 | 12 ft | 50 kts | 308° |
| 2026-05-04 01:10 | 37.70349 | -122.21746 | 12 ft | 80 kts | 309° |
| 2026-05-04 01:10 | 37.70887 | -122.22537 | 12 ft | 155 kts | 309° |
| 2026-05-04 01:10 | 37.71608 | -122.23657 | 714 ft | 162 kts | 305° |
| 2026-05-04 01:11 | 37.72333 | -122.24796 | 1466 ft | 175 kts | 306° |
| 2026-05-04 01:11 | 37.73144 | -122.25978 | 2281 ft | 185 kts | 308° |
| 2026-05-04 01:11 | 37.73983 | -122.27211 | 3270 ft | 188 kts | 308° |
| 2026-05-04 01:11 | 37.74831 | -122.28471 | 4179 ft | 197 kts | 309° |
| 2026-05-04 01:12 | 37.75734 | -122.29820 | 5043 ft | 211 kts | 309° |
| 2026-05-04 01:12 | 37.76802 | -122.31410 | 5202 ft | 264 kts | 310° |
| 2026-05-04 01:12 | 37.77974 | -122.33153 | 6663 ft | 257 kts | 310° |
| 2026-05-04 01:12 | 37.78982 | -122.34870 | 8082 ft | 250 kts | 294° |
| 2026-05-04 01:13 | 37.79339 | -122.37126 | 8794 ft | 270 kts | 262° |
| 2026-05-04 01:13 | 37.78749 | -122.39257 | 10078 ft | 259 kts | 232° |
| 2026-05-04 01:13 | 37.77464 | -122.40784 | 10987 ft | 266 kts | 208° |
| 2026-05-04 01:13 | 37.75589 | -122.41550 | 11142 ft | 301 kts | 180° |
| 2026-05-04 01:14 | 37.73593 | -122.41150 | 12515 ft | 290 kts | 169° |
| 2026-05-04 01:14 | 37.71616 | -122.41245 | 13721 ft | 292 kts | 189° |
| 2026-05-04 01:14 | 37.69564 | -122.41775 | 14437 ft | 309 kts | 189° |
| 2026-05-04 01:14 | 37.67481 | -122.42343 | 15634 ft | 306 kts | 189° |
| 2026-05-04 01:15 | 37.65401 | -122.42916 | 16649 ft | 310 kts | 189° |
| 2026-05-04 01:15 | 37.63254 | -122.43510 | 17452 ft | 319 kts | 189° |
| 2026-05-04 01:15 | 37.61098 | -122.44109 | 18505 ft | 319 kts | 189° |
| 2026-05-04 01:15 | 37.58897 | -122.44717 | 19371 ft | 325 kts | 189° |
| 2026-05-04 01:16 | 37.56691 | -122.45328 | 20129 ft | 332 kts | 189° |
| 2026-05-04 01:16 | 37.54338 | -122.45972 | 20391 ft | 357 kts | 189° |
| 2026-05-04 01:16 | 37.51809 | -122.46502 | 20425 ft | 381 kts | 178° |
| 2026-05-04 01:16 | 37.49142 | -122.45927 | 20690 ft | 396 kts | 157° |
| 2026-05-04 01:17 | 37.46779 | -122.44307 | 21941 ft | 386 kts | 141° |
| 2026-05-04 01:17 | 37.44959 | -122.41897 | 22776 ft | 389 kts | 124° |
| 2026-05-04 01:17 | 37.43459 | -122.38966 | 23238 ft | 402 kts | 129° |
| 2026-05-04 01:17 | 37.41749 | -122.36218 | 24284 ft | 398 kts | 129° |
| 2026-05-04 01:18 | 37.39992 | -122.33478 | 24897 ft | 406 kts | 130° |
| 2026-05-04 01:18 | 37.38142 | -122.30611 | 25463 ft | 414 kts | 130° |
| 2026-05-04 01:18 | 37.36309 | -122.27766 | 26160 ft | 418 kts | 131° |
| 2026-05-04 01:18 | 37.34434 | -122.24864 | 26605 ft | 427 kts | 131° |
| 2026-05-04 01:19 | 37.32516 | -122.21898 | 27238 ft | 431 kts | 131° |
| 2026-05-04 01:19 | 37.30589 | -122.18919 | 27765 ft | 437 kts | 131° |
| 2026-05-04 01:19 | 37.28589 | -122.15829 | 28149 ft | 446 kts | 131° |
| 2026-05-04 01:19 | 37.26535 | -122.12658 | 28551 ft | 454 kts | 132° |
| 2026-05-04 01:20 | 37.24401 | -122.09365 | 29331 ft | 452 kts | 133° |
| 2026-05-04 01:20 | 37.22331 | -122.06184 | 29517 ft | 464 kts | 133° |
| 2026-05-04 01:20 | 37.20197 | -122.02904 | 30038 ft | 466 kts | 133° |
| 2026-05-04 01:20 | 37.18071 | -121.99628 | 30510 ft | 468 kts | 133° |
| 2026-05-04 01:21 | 37.15924 | -121.96345 | 30576 ft | 480 kts | 133° |
| 2026-05-04 01:21 | 37.13764 | -121.93025 | 31059 ft | 479 kts | 133° |
| 2026-05-04 01:21 | 37.11629 | -121.89738 | 31658 ft | 476 kts | 134° |
| 2026-05-04 01:21 | 37.09462 | -121.86428 | 31856 ft | 483 kts | 134° |
| 2026-05-04 01:22 | 37.07237 | -121.83021 | 32182 ft | 485 kts | 135° |
| 2026-05-04 01:22 | 37.05040 | -121.79671 | 32524 ft | 487 kts | 135° |
| 2026-05-04 01:22 | 37.02780 | -121.76219 | 32774 ft | 491 kts | 136° |
| 2026-05-04 01:22 | 37.00560 | -121.72829 | 33105 ft | 492 kts | 136° |
| 2026-05-04 01:23 | 36.98340 | -121.69456 | 33354 ft | 495 kts | 136° |
| 2026-05-04 01:23 | 36.96109 | -121.66061 | 33792 ft | 493 kts | 136° |
| 2026-05-04 01:23 | 36.93921 | -121.62740 | 34283 ft | 491 kts | 137° |
| 2026-05-04 01:23 | 36.91702 | -121.59369 | 34634 ft | 491 kts | 137° |
| 2026-05-04 01:24 | 36.89498 | -121.56030 | 34940 ft | 487 kts | 136° |
| 2026-05-04 01:24 | 36.85156 | -121.49446 | 34984 ft | 487 kts | 137° |
| 2026-05-04 01:25 | 36.80765 | -121.42810 | 34981 ft | 494 kts | 137° |
| 2026-05-04 01:25 | 36.76354 | -121.36153 | 34982 ft | 494 kts | 137° |
| 2026-05-04 01:26 | 36.71846 | -121.29364 | 34960 ft | 492 kts | 138° |
| 2026-05-04 01:26 | 36.67442 | -121.22746 | 34933 ft | 492 kts | 139° |
| 2026-05-04 01:27 | 36.63010 | -121.16106 | 34930 ft | 497 kts | 139° |
| 2026-05-04 01:27 | 36.58587 | -121.09476 | 34931 ft | 493 kts | 139° |
| 2026-05-04 01:28 | 36.54150 | -121.02846 | 34927 ft | 495 kts | 139° |
| 2026-05-04 01:28 | 36.49689 | -120.96200 | 34922 ft | 497 kts | 139° |
| 2026-05-04 01:29 | 36.45220 | -120.89507 | 34928 ft | 499 kts | 139° |
| 2026-05-04 01:29 | 36.40760 | -120.82826 | 34926 ft | 499 kts | 139° |
| 2026-05-04 01:30 | 36.36243 | -120.76073 | 34920 ft | 497 kts | 139° |
| 2026-05-04 01:30 | 36.31566 | -120.69093 | 34916 ft | 501 kts | 139° |
| 2026-05-04 01:31 | 36.26794 | -120.61991 | 34919 ft | 500 kts | 139° |
| 2026-05-04 01:31 | 36.22071 | -120.54979 | 34914 ft | 500 kts | 140° |
| 2026-05-04 01:32 | 36.17318 | -120.47932 | 34911 ft | 504 kts | 139° |
| 2026-05-04 01:32 | 36.12501 | -120.40810 | 34910 ft | 503 kts | 140° |
| 2026-05-04 01:33 | 36.07672 | -120.33674 | 34896 ft | 502 kts | 140° |
| 2026-05-04 01:33 | 36.02889 | -120.26630 | 34896 ft | 502 kts | 141° |
| 2026-05-04 01:34 | 35.98147 | -120.19659 | 34891 ft | 504 kts | 140° |
| 2026-05-04 01:34 | 35.93455 | -120.12773 | 34887 ft | 504 kts | 141° |
| 2026-05-04 01:35 | 35.88605 | -120.05676 | 34897 ft | 507 kts | 140° |
| 2026-05-04 01:35 | 35.83736 | -119.98589 | 34901 ft | 502 kts | 142° |
| 2026-05-04 01:36 | 35.78812 | -119.91590 | 34918 ft | 506 kts | 141° |
| 2026-05-04 01:36 | 35.73927 | -119.84645 | 34912 ft | 508 kts | 141° |
| 2026-05-04 01:37 | 35.69008 | -119.77663 | 34915 ft | 503 kts | 142° |
| 2026-05-04 01:37 | 35.64049 | -119.70647 | 34907 ft | 504 kts | 142° |
| 2026-05-04 01:38 | 35.59106 | -119.63661 | 34904 ft | 506 kts | 142° |
| 2026-05-04 01:38 | 35.54120 | -119.56631 | 34912 ft | 507 kts | 142° |
| 2026-05-04 01:39 | 35.49133 | -119.49622 | 34903 ft | 509 kts | 142° |
| 2026-05-04 01:39 | 35.44148 | -119.42615 | 34902 ft | 510 kts | 142° |
| 2026-05-04 01:40 | 35.39117 | -119.35584 | 34900 ft | 511 kts | 142° |
| 2026-05-04 01:40 | 35.34100 | -119.28554 | 34881 ft | 508 kts | 143° |
| 2026-05-04 01:41 | 35.29027 | -119.21483 | 34864 ft | 513 kts | 143° |
| 2026-05-04 01:41 | 35.23893 | -119.14327 | 34870 ft | 514 kts | 143° |
| 2026-05-04 01:42 | 35.18774 | -119.07227 | 34880 ft | 516 kts | 143° |
| 2026-05-04 01:42 | 35.13591 | -119.00030 | 34883 ft | 515 kts | 144° |
| 2026-05-04 01:43 | 35.08414 | -118.92862 | 34887 ft | 510 kts | 144° |
| 2026-05-04 01:43 | 35.03354 | -118.85889 | 34893 ft | 517 kts | 144° |
| 2026-05-04 01:44 | 34.98200 | -118.78786 | 34900 ft | 517 kts | 144° |
| 2026-05-04 01:44 | 34.92992 | -118.71624 | 34906 ft | 519 kts | 144° |
| 2026-05-04 01:45 | 34.87778 | -118.64468 | 34929 ft | 520 kts | 144° |
| 2026-05-04 01:45 | 34.79945 | -118.53728 | 34955 ft | 512 kts | 145° |
| 2026-05-04 01:46 | 34.74766 | -118.46663 | 34950 ft | 515 kts | 145° |
| 2026-05-04 01:46 | 34.69534 | -118.39542 | 34948 ft | 523 kts | 144° |
| 2026-05-04 01:47 | 34.64498 | -118.32690 | 34917 ft | 517 kts | 145° |
| 2026-05-04 01:47 | 34.59410 | -118.25781 | 34921 ft | 512 kts | 146° |
| 2026-05-04 01:48 | 34.54379 | -118.18981 | 34945 ft | 521 kts | 146° |
| 2026-05-04 01:48 | 34.49344 | -118.12165 | 34936 ft | 520 kts | 145° |
| 2026-05-04 01:49 | 34.44248 | -118.05293 | 34949 ft | 514 kts | 145° |
| 2026-05-04 01:49 | 34.41975 | -118.01472 | 34940 ft | 541 kts | 129° |
| 2026-05-04 01:49 | 34.40509 | -117.96844 | 34960 ft | 570 kts | 111° |
| 2026-05-04 01:50 | 34.38574 | -117.87234 | 34923 ft | 573 kts | 114° |
| 2026-05-04 01:50 | 34.36372 | -117.78019 | 34933 ft | 565 kts | 115° |
| 2026-05-04 01:51 | 34.34179 | -117.68851 | 34953 ft | 567 kts | 114° |
| 2026-05-04 01:51 | 34.31966 | -117.59745 | 34956 ft | 565 kts | 114° |
| 2026-05-04 01:52 | 34.29769 | -117.50618 | 34979 ft | 567 kts | 114° |
| 2026-05-04 01:52 | 34.27541 | -117.41462 | 34972 ft | 572 kts | 113° |
| 2026-05-04 01:53 | 34.25284 | -117.32211 | 34965 ft | 572 kts | 114° |
| 2026-05-04 01:53 | 34.23067 | -117.23129 | 34991 ft | 561 kts | 115° |
| 2026-05-04 01:54 | 34.20836 | -117.14080 | 34983 ft | 565 kts | 114° |
| 2026-05-04 01:54 | 34.18558 | -117.04842 | 34988 ft | 571 kts | 114° |
| 2026-05-04 01:55 | 34.16268 | -116.95499 | 34983 ft | 567 kts | 114° |
| 2026-05-04 01:55 | 34.13985 | -116.86336 | 34989 ft | 565 kts | 114° |
| 2026-05-04 01:56 | 34.11685 | -116.77112 | 34978 ft | 571 kts | 114° |
| 2026-05-04 01:56 | 34.09371 | -116.67812 | 34968 ft | 565 kts | 114° |
| 2026-05-04 01:57 | 34.07046 | -116.58579 | 34951 ft | 566 kts | 114° |
| 2026-05-04 01:57 | 34.04730 | -116.49392 | 34932 ft | 570 kts | 113° |
| 2026-05-04 01:58 | 34.02367 | -116.39961 | 34928 ft | 567 kts | 114° |
| 2026-05-04 01:58 | 33.99970 | -116.30578 | 34926 ft | 569 kts | 114° |
| 2026-05-04 01:59 | 33.97501 | -116.20858 | 34936 ft | 571 kts | 114° |
| 2026-05-04 01:59 | 33.95005 | -116.11050 | 34924 ft | 567 kts | 114° |
| 2026-05-04 02:00 | 33.92488 | -116.01297 | 34927 ft | 569 kts | 114° |
| 2026-05-04 02:00 | 33.89962 | -115.91443 | 34916 ft | 573 kts | 114° |
| 2026-05-04 02:01 | 33.87466 | -115.81762 | 34914 ft | 571 kts | 115° |
| 2026-05-04 02:01 | 33.84911 | -115.71897 | 34922 ft | 566 kts | 115° |
| 2026-05-04 02:02 | 33.82391 | -115.62253 | 34900 ft | 569 kts | 114° |
| 2026-05-04 02:02 | 33.79929 | -115.52777 | 34876 ft | 571 kts | 115° |
| 2026-05-04 02:03 | 33.77454 | -115.43347 | 34825 ft | 567 kts | 115° |
| 2026-05-04 02:03 | 33.74911 | -115.33644 | 34795 ft | 569 kts | 115° |
| 2026-05-04 02:04 | 33.72320 | -115.23821 | 34748 ft | 564 kts | 115° |
| 2026-05-04 02:04 | 33.69752 | -115.14145 | 34760 ft | 566 kts | 115° |
| 2026-05-04 02:05 | 33.67139 | -115.04308 | 34764 ft | 564 kts | 116° |
| 2026-05-04 02:05 | 33.64523 | -114.94502 | 34781 ft | 571 kts | 115° |
| 2026-05-04 02:06 | 33.61916 | -114.84721 | 34776 ft | 562 kts | 116° |
| 2026-05-04 02:06 | 33.59311 | -114.74969 | 34759 ft | 568 kts | 111° |
| 2026-05-04 02:07 | 33.57431 | -114.64958 | 34462 ft | 583 kts | 108° |
| 2026-05-04 02:07 | 33.56480 | -114.60063 | 33830 ft | 580 kts | 109° |
| 2026-05-04 02:07 | 33.55525 | -114.55172 | 33219 ft | 577 kts | 108° |
| 2026-05-04 02:08 | 33.54602 | -114.50365 | 32713 ft | 577 kts | 109° |
| 2026-05-04 02:08 | 33.53661 | -114.45573 | 32211 ft | 572 kts | 109° |
| 2026-05-04 02:08 | 33.52729 | -114.40868 | 31725 ft | 569 kts | 108° |
| 2026-05-04 02:08 | 33.51791 | -114.36111 | 31244 ft | 568 kts | 108° |
| 2026-05-04 02:09 | 33.50880 | -114.31442 | 30743 ft | 564 kts | 108° |
| 2026-05-04 02:09 | 33.49919 | -114.26612 | 30203 ft | 553 kts | 108° |
| 2026-05-04 02:09 | 33.48976 | -114.21797 | 29653 ft | 539 kts | 107° |
| 2026-05-04 02:09 | 33.48048 | -114.17132 | 29099 ft | 525 kts | 108° |
| 2026-05-04 02:10 | 33.47190 | -114.12811 | 28552 ft | 514 kts | 107° |
| 2026-05-04 02:10 | 33.46346 | -114.08535 | 27989 ft | 502 kts | 108° |
| 2026-05-04 02:10 | 33.45474 | -114.04449 | 27437 ft | 488 kts | 115° |
| 2026-05-04 02:10 | 33.43980 | -114.00919 | 26932 ft | 468 kts | 133° |
| 2026-05-04 02:11 | 33.41837 | -113.98106 | 26432 ft | 455 kts | 143° |
| 2026-05-04 02:11 | 33.39682 | -113.95285 | 25924 ft | 462 kts | 135° |
| 2026-05-04 02:11 | 33.37895 | -113.92097 | 25401 ft | 467 kts | 124° |
| 2026-05-04 02:11 | 33.36608 | -113.88556 | 24927 ft | 470 kts | 109° |
| 2026-05-04 02:12 | 33.36223 | -113.84722 | 24887 ft | 469 kts | 91° |
| 2026-05-04 02:12 | 33.36323 | -113.80801 | 24876 ft | 473 kts | 94° |
| 2026-05-04 02:12 | 33.36057 | -113.76901 | 24874 ft | 475 kts | 98° |
| 2026-05-04 02:12 | 33.35760 | -113.72940 | 24860 ft | 477 kts | 98° |
| 2026-05-04 02:13 | 33.35458 | -113.69017 | 24851 ft | 475 kts | 98° |
| 2026-05-04 02:13 | 33.35165 | -113.65104 | 24851 ft | 474 kts | 97° |
| 2026-05-04 02:13 | 33.34874 | -113.61182 | 24852 ft | 474 kts | 98° |
| 2026-05-04 02:13 | 33.34574 | -113.57294 | 24774 ft | 478 kts | 97° |
| 2026-05-04 02:14 | 33.34269 | -113.53332 | 24292 ft | 478 kts | 97° |
| 2026-05-04 02:14 | 33.33981 | -113.49436 | 23796 ft | 468 kts | 97° |
| 2026-05-04 02:14 | 33.33726 | -113.45559 | 23276 ft | 460 kts | 91° |
| 2026-05-04 02:14 | 33.33954 | -113.41827 | 22879 ft | 451 kts | 85° |
| 2026-05-04 02:15 | 33.33905 | -113.38104 | 22865 ft | 446 kts | 103° |
| 2026-05-04 02:15 | 33.33026 | -113.34573 | 22874 ft | 447 kts | 114° |
| 2026-05-04 02:15 | 33.31987 | -113.31050 | 22540 ft | 454 kts | 112° |
| 2026-05-04 02:15 | 33.30997 | -113.27529 | 22035 ft | 448 kts | 112° |
| 2026-05-04 02:16 | 33.30017 | -113.24013 | 21515 ft | 439 kts | 112° |
| 2026-05-04 02:16 | 33.29339 | -113.20519 | 20992 ft | 434 kts | 102° |
| 2026-05-04 02:16 | 33.28860 | -113.16997 | 20495 ft | 428 kts | 102° |
| 2026-05-04 02:16 | 33.28365 | -113.13504 | 19992 ft | 426 kts | 103° |
| 2026-05-04 02:17 | 33.27873 | -113.10046 | 19485 ft | 418 kts | 103° |
| 2026-05-04 02:17 | 33.27431 | -113.06649 | 18975 ft | 412 kts | 96° |
| 2026-05-04 02:17 | 33.27499 | -113.03283 | 18836 ft | 395 kts | 90° |
| 2026-05-04 02:17 | 33.27595 | -113.00128 | 18766 ft | 378 kts | 90° |
| 2026-05-04 02:18 | 33.27683 | -112.96980 | 18163 ft | 375 kts | 90° |
| 2026-05-04 02:18 | 33.27766 | -112.93900 | 17664 ft | 372 kts | 91° |
| 2026-05-04 02:18 | 33.27841 | -112.90848 | 17178 ft | 367 kts | 91° |
| 2026-05-04 02:18 | 33.27917 | -112.87814 | 16683 ft | 361 kts | 91° |
| 2026-05-04 02:19 | 33.27985 | -112.84840 | 16186 ft | 358 kts | 91° |
| 2026-05-04 02:19 | 33.28064 | -112.81902 | 15694 ft | 352 kts | 90° |
| 2026-05-04 02:19 | 33.28326 | -112.79021 | 15201 ft | 348 kts | 86° |
| 2026-05-04 02:19 | 33.28611 | -112.76166 | 14696 ft | 345 kts | 86° |
| 2026-05-04 02:20 | 33.28880 | -112.73364 | 14226 ft | 340 kts | 86° |
| 2026-05-04 02:20 | 33.29145 | -112.70598 | 13743 ft | 334 kts | 86° |
| 2026-05-04 02:20 | 33.29400 | -112.67885 | 13232 ft | 327 kts | 87° |
| 2026-05-04 02:20 | 33.29649 | -112.65215 | 12746 ft | 325 kts | 86° |
| 2026-05-04 02:21 | 33.29900 | -112.62538 | 12260 ft | 320 kts | 87° |
| 2026-05-04 02:21 | 33.30145 | -112.59889 | 11797 ft | 319 kts | 87° |
| 2026-05-04 02:21 | 33.30390 | -112.57251 | 11332 ft | 319 kts | 87° |
| 2026-05-04 02:21 | 33.30629 | -112.54646 | 11071 ft | 309 kts | 87° |
| 2026-05-04 02:22 | 33.30859 | -112.52191 | 11041 ft | 292 kts | 87° |
| 2026-05-04 02:22 | 33.31079 | -112.49833 | 11040 ft | 283 kts | 88° |
| 2026-05-04 02:22 | 33.31298 | -112.47345 | 11096 ft | 316 kts | 87° |
| 2026-05-04 02:22 | 33.31545 | -112.44707 | 11083 ft | 320 kts | 86° |
| 2026-05-04 02:23 | 33.31788 | -112.42087 | 11080 ft | 312 kts | 86° |
| 2026-05-04 02:23 | 33.32024 | -112.39515 | 11083 ft | 312 kts | 87° |
| 2026-05-04 02:23 | 33.32252 | -112.36986 | 11112 ft | 295 kts | 87° |
| 2026-05-04 02:23 | 33.32469 | -112.34650 | 11048 ft | 279 kts | 88° |
| 2026-05-04 02:24 | 33.32681 | -112.32336 | 10594 ft | 278 kts | 88° |
| 2026-05-04 02:24 | 33.32885 | -112.30057 | 10121 ft | 278 kts | 88° |
| 2026-05-04 02:24 | 33.33097 | -112.27757 | 9647 ft | 277 kts | 88° |
| 2026-05-04 02:24 | 33.33302 | -112.25474 | 9204 ft | 274 kts | 88° |
| 2026-05-04 02:25 | 33.33504 | -112.23299 | 9112 ft | 257 kts | 88° |
| 2026-05-04 02:25 | 33.33693 | -112.21202 | 9098 ft | 249 kts | 89° |
| 2026-05-04 02:25 | 33.33879 | -112.19126 | 9107 ft | 253 kts | 88° |
| 2026-05-04 02:25 | 33.34067 | -112.17039 | 9054 ft | 257 kts | 88° |
| 2026-05-04 02:26 | 33.34258 | -112.14895 | 8567 ft | 261 kts | 88° |
| 2026-05-04 02:26 | 33.34458 | -112.12718 | 8092 ft | 263 kts | 89° |
| 2026-05-04 02:26 | 33.34650 | -112.10548 | 7617 ft | 264 kts | 89° |
| 2026-05-04 02:26 | 33.34774 | -112.08382 | 7140 ft | 262 kts | 97° |
| 2026-05-04 02:27 | 33.34729 | -112.06191 | 6670 ft | 263 kts | 96° |
| 2026-05-04 02:27 | 33.34701 | -112.04006 | 6203 ft | 262 kts | 96° |
| 2026-05-04 02:27 | 33.34670 | -112.01859 | 5759 ft | 259 kts | 96° |
| 2026-05-04 02:27 | 33.34642 | -111.99722 | 5287 ft | 257 kts | 96° |
| 2026-05-04 02:28 | 33.34617 | -111.97580 | 4814 ft | 255 kts | 96° |
| 2026-05-04 02:28 | 33.34584 | -111.95463 | 4372 ft | 253 kts | 96° |
| 2026-05-04 02:28 | 33.34549 | -111.93403 | 4063 ft | 245 kts | 96° |
| 2026-05-04 02:28 | 33.34649 | -111.91409 | 3924 ft | 234 kts | 75° |
| 2026-05-04 02:29 | 33.35551 | -111.89843 | 3675 ft | 233 kts | 39° |
| 2026-05-04 02:29 | 33.36993 | -111.89043 | 3493 ft | 222 kts | 7° |
| 2026-05-04 02:29 | 33.38492 | -111.88930 | 3359 ft | 207 kts | 358° |
| 2026-05-04 02:29 | 33.39900 | -111.88860 | 3295 ft | 195 kts | 359° |
| 2026-05-04 02:30 | 33.41316 | -111.88783 | 3332 ft | 214 kts | 358° |
| 2026-05-04 02:30 | 33.42803 | -111.88902 | 3204 ft | 206 kts | 338° |
| 2026-05-04 02:30 | 33.43781 | -111.89939 | 2885 ft | 196 kts | 286° |
| 2026-05-04 02:30 | 33.43534 | -111.91390 | 2410 ft | 182 kts | 235° |
| 2026-05-04 02:31 | 33.43010 | -111.92711 | 2128 ft | 165 kts | 250° |
| 2026-05-04 02:31 | 33.42878 | -111.93948 | 1933 ft | 139 kts | 264° |
| 2026-05-04 02:31 | 33.42900 | -111.95107 | 1759 ft | 140 kts | 266° |
| 2026-05-04 02:31 | 33.42888 | -111.96284 | 1713 ft | 144 kts | 264° |
| 2026-05-04 02:32 | 33.42891 | -111.97498 | 1570 ft | 148 kts | 266° |
| 2026-05-04 02:32 | 33.42887 | -111.98726 | 1376 ft | 147 kts | 265° |
| 2026-05-04 02:32 | 33.42888 | -111.99924 | 1192 ft | 139 kts | 266° |
| 2026-05-04 02:32 | 33.42876 | -112.01018 | 1128 ft | 118 kts | 272° |
| 2026-05-04 02:33 | 33.42883 | -112.01748 | 1127 ft | 53 kts | 269° |
| 2026-05-04 02:33 | 33.42908 | -112.02078 | 1125 ft | 15 kts | 290° |
| 2026-05-04 02:33 | 33.42952 | -112.02166 | 1125 ft | 17 kts | 342° |
| 2026-05-04 02:33 | 33.42995 | -112.02060 | 1125 ft | 16 kts | 92° |
| 2026-05-04 02:34 | 33.42993 | -112.01939 | 1125 ft | 14 kts | 91° |
| 2026-05-04 02:34 | 33.42994 | -112.01836 | 1127 ft | 11 kts | 87° |
| 2026-05-04 02:34 | 33.42995 | -112.01751 | 1127 ft | 10 kts | 89° |
| 2026-05-04 02:34 | 33.43002 | -112.01672 | 1127 ft | 9 kts | 79° |
| 2026-05-04 02:35 | 33.43018 | -112.01628 | 1127 ft | 0 kts | 60° |
| 2026-05-04 02:35 | 33.43021 | -112.01621 | 1127 ft | 3 kts | 59° |
| 2026-05-04 02:35 | 33.43067 | -112.01578 | 1127 ft | 14 kts | 15° |
| 2026-05-04 02:35 | 33.43171 | -112.01569 | 1129 ft | 14 kts | 13° |
| 2026-05-04 02:36 | 33.43247 | -112.01512 | 1130 ft | 11 kts | 35° |
| 2026-05-04 02:36 | 33.43288 | -112.01412 | 1130 ft | 17 kts | 87° |
| 2026-05-04 02:36 | 33.43288 | -112.01269 | 1131 ft | 16 kts | 90° |
| 2026-05-04 02:36 | 33.43290 | -112.01162 | 1133 ft | 8 kts | 73° |
| 2026-05-04 02:37 | 33.43335 | -112.01131 | 1133 ft | 4 kts | 358° |
| 2026-05-04 02:37 | 33.43363 | -112.01131 | 1133 ft | 4 kts | 360° |
| 2026-05-04 02:37 | 33.43379 | -112.01131 | 1133 ft | 0 kts | 359° |